sensor_id;sensor_type;location;lat;lon;timestamp;temperature;humidity
68648;SHT31;55632;51.962;16.116;2024-01-11T00:03:06;-9.52;85.12
68648;SHT31;55632;51.962;16.116;2024-01-11T00:08:07;-9.52;85.14
68648;SHT31;55632;51.962;16.116;2024-01-11T00:13:08;-9.50;85.22
68648;SHT31;55632;51.962;16.116;2024-01-11T00:18:08;-9.50;85.32
68648;SHT31;55632;51.962;16.116;2024-01-11T00:23:09;-9.47;85.43
68648;SHT31;55632;51.962;16.116;2024-01-11T00:28:10;-9.48;85.40
68648;SHT31;55632;51.962;16.116;2024-01-11T00:33:10;-9.47;85.47
68648;SHT31;55632;51.962;16.116;2024-01-11T00:38:11;-9.47;85.54
68648;SHT31;55632;51.962;16.116;2024-01-11T00:43:12;-9.44;85.58
68648;SHT31;55632;51.962;16.116;2024-01-11T00:48:12;-9.42;85.61
68648;SHT31;55632;51.962;16.116;2024-01-11T00:53:13;-9.47;85.62
68648;SHT31;55632;51.962;16.116;2024-01-11T00:58:14;-9.45;85.64
68648;SHT31;55632;51.962;16.116;2024-01-11T01:03:15;-9.48;85.51
68648;SHT31;55632;51.962;16.116;2024-01-11T01:08:19;-9.50;85.64
68648;SHT31;55632;51.962;16.116;2024-01-11T01:13:20;-9.48;85.81
68648;SHT31;55632;51.962;16.116;2024-01-11T01:18:21;-9.44;85.94
68648;SHT31;55632;51.962;16.116;2024-01-11T01:23:21;-9.38;86.04
68648;SHT31;55632;51.962;16.116;2024-01-11T01:28:22;-9.37;86.04
68648;SHT31;55632;51.962;16.116;2024-01-11T01:33:22;-9.31;86.07
68648;SHT31;55632;51.962;16.116;2024-01-11T01:38:23;-9.35;86.02
68648;SHT31;55632;51.962;16.116;2024-01-11T01:43:24;-9.34;86.09
68648;SHT31;55632;51.962;16.116;2024-01-11T01:48:25;-9.34;86.02
68648;SHT31;55632;51.962;16.116;2024-01-11T01:53:27;-9.33;86.12
68648;SHT31;55632;51.962;16.116;2024-01-11T01:58:28;-9.30;86.26
68648;SHT31;55632;51.962;16.116;2024-01-11T02:03:30;-9.27;86.35
68648;SHT31;55632;51.962;16.116;2024-01-11T02:08:31;-9.26;86.36
68648;SHT31;55632;51.962;16.116;2024-01-11T02:13:32;-9.23;86.40
68648;SHT31;55632;51.962;16.116;2024-01-11T02:18:33;-9.24;86.42
68648;SHT31;55632;51.962;16.116;2024-01-11T02:23:34;-9.22;86.54
68648;SHT31;55632;51.962;16.116;2024-01-11T02:28:36;-9.24;86.48
68648;SHT31;55632;51.962;16.116;2024-01-11T02:33:36;-9.26;86.52
68648;SHT31;55632;51.962;16.116;2024-01-11T02:38:38;-9.26;86.48
68648;SHT31;55632;51.962;16.116;2024-01-11T02:43:39;-9.26;86.51
68648;SHT31;55632;51.962;16.116;2024-01-11T02:48:40;-9.27;86.54
68648;SHT31;55632;51.962;16.116;2024-01-11T02:53:40;-9.22;86.59
68648;SHT31;55632;51.962;16.116;2024-01-11T02:58:41;-9.22;86.61
68648;SHT31;55632;51.962;16.116;2024-01-11T03:03:41;-9.15;86.66
68648;SHT31;55632;51.962;16.116;2024-01-11T03:08:42;-9.13;86.70
68648;SHT31;55632;51.962;16.116;2024-01-11T03:13:43;-9.10;86.75
68648;SHT31;55632;51.962;16.116;2024-01-11T03:18:44;-9.02;86.86
68648;SHT31;55632;51.962;16.116;2024-01-11T03:23:44;-8.92;87.01
68648;SHT31;55632;51.962;16.116;2024-01-11T03:28:45;-8.79;87.13
68648;SHT31;55632;51.962;16.116;2024-01-11T03:33:47;-8.67;87.23
68648;SHT31;55632;51.962;16.116;2024-01-11T03:38:47;-8.51;87.31
68648;SHT31;55632;51.962;16.116;2024-01-11T03:43:50;-8.37;87.25
68648;SHT31;55632;51.962;16.116;2024-01-11T03:48:51;-8.27;87.29
68648;SHT31;55632;51.962;16.116;2024-01-11T03:53:52;-8.19;87.29
68648;SHT31;55632;51.962;16.116;2024-01-11T03:58:52;-8.12;87.22
68648;SHT31;55632;51.962;16.116;2024-01-11T04:03:53;-8.03;87.12
68648;SHT31;55632;51.962;16.116;2024-01-11T04:08:53;-7.97;87.13
68648;SHT31;55632;51.962;16.116;2024-01-11T04:13:55;-7.94;86.95
68648;SHT31;55632;51.962;16.116;2024-01-11T04:18:55;-7.94;86.94
68648;SHT31;55632;51.962;16.116;2024-01-11T04:23:57;-7.95;86.87
68648;SHT31;55632;51.962;16.116;2024-01-11T04:28:57;-7.91;86.89
68648;SHT31;55632;51.962;16.116;2024-01-11T04:34:00;-7.92;86.85
68648;SHT31;55632;51.962;16.116;2024-01-11T04:39:00;-7.91;86.86
68648;SHT31;55632;51.962;16.116;2024-01-11T04:44:01;-7.91;86.89
68648;SHT31;55632;51.962;16.116;2024-01-11T04:49:02;-7.91;86.86
68648;SHT31;55632;51.962;16.116;2024-01-11T04:54:02;-7.90;86.92
68648;SHT31;55632;51.962;16.116;2024-01-11T04:59:03;-7.85;86.94
68648;SHT31;55632;51.962;16.116;2024-01-11T05:04:06;-7.83;86.96
68648;SHT31;55632;51.962;16.116;2024-01-11T05:09:07;-7.83;86.98
68648;SHT31;55632;51.962;16.116;2024-01-11T05:14:07;-7.81;87.07
68648;SHT31;55632;51.962;16.116;2024-01-11T05:19:08;-7.78;87.00
68648;SHT31;55632;51.962;16.116;2024-01-11T05:24:09;-7.78;87.12
68648;SHT31;55632;51.962;16.116;2024-01-11T05:29:09;-7.77;87.22
68648;SHT31;55632;51.962;16.116;2024-01-11T05:34:10;-7.73;87.36
68648;SHT31;55632;51.962;16.116;2024-01-11T05:39:13;-7.69;87.38
68648;SHT31;55632;51.962;16.116;2024-01-11T05:44:13;-7.66;87.45
68648;SHT31;55632;51.962;16.116;2024-01-11T05:49:14;-7.60;87.51
68648;SHT31;55632;51.962;16.116;2024-01-11T05:54:15;-7.57;87.57
68648;SHT31;55632;51.962;16.116;2024-01-11T05:59:16;-7.54;87.63
68648;SHT31;55632;51.962;16.116;2024-01-11T06:04:16;-7.50;87.72
68648;SHT31;55632;51.962;16.116;2024-01-11T06:09:17;-7.44;87.73
68648;SHT31;55632;51.962;16.116;2024-01-11T06:14:17;-7.42;87.81
68648;SHT31;55632;51.962;16.116;2024-01-11T06:19:18;-7.35;87.89
68648;SHT31;55632;51.962;16.116;2024-01-11T06:24:19;-7.33;88.09
68648;SHT31;55632;51.962;16.116;2024-01-11T06:29:19;-7.25;88.09
68648;SHT31;55632;51.962;16.116;2024-01-11T06:34:20;-7.22;88.18
68648;SHT31;55632;51.962;16.116;2024-01-11T06:39:21;-7.16;88.30
68648;SHT31;55632;51.962;16.116;2024-01-11T06:44:22;-7.12;88.31
68648;SHT31;55632;51.962;16.116;2024-01-11T06:49:22;-7.12;88.36
68648;SHT31;55632;51.962;16.116;2024-01-11T06:54:23;-7.11;88.40
68648;SHT31;55632;51.962;16.116;2024-01-11T06:59:24;-7.08;88.41
68648;SHT31;55632;51.962;16.116;2024-01-11T07:04:24;-7.08;88.46
68648;SHT31;55632;51.962;16.116;2024-01-11T07:09:25;-7.00;88.53
68648;SHT31;55632;51.962;16.116;2024-01-11T07:14:26;-7.00;88.65
68648;SHT31;55632;51.962;16.116;2024-01-11T07:19:26;-6.97;88.67
68648;SHT31;55632;51.962;16.116;2024-01-11T07:24:27;-6.91;88.67
68648;SHT31;55632;51.962;16.116;2024-01-11T07:29:30;-6.90;88.69
68648;SHT31;55632;51.962;16.116;2024-01-11T07:34:30;-6.84;88.69
68648;SHT31;55632;51.962;16.116;2024-01-11T07:39:31;-6.80;88.68
68648;SHT31;55632;51.962;16.116;2024-01-11T07:44:32;-6.77;88.72
68648;SHT31;55632;51.962;16.116;2024-01-11T07:49:32;-6.73;88.74
68648;SHT31;55632;51.962;16.116;2024-01-11T07:54:33;-6.70;88.69
68648;SHT31;55632;51.962;16.116;2024-01-11T07:59:34;-6.67;88.64
68648;SHT31;55632;51.962;16.116;2024-01-11T08:04:36;-6.65;88.69
68648;SHT31;55632;51.962;16.116;2024-01-11T08:09:39;-6.59;88.76
68648;SHT31;55632;51.962;16.116;2024-01-11T08:14:45;-6.53;88.75
68648;SHT31;55632;51.962;16.116;2024-01-11T08:19:47;-6.50;88.82
68648;SHT31;55632;51.962;16.116;2024-01-11T08:24:47;-6.45;88.87
68648;SHT31;55632;51.962;16.116;2024-01-11T08:29:48;-6.39;88.80
68648;SHT31;55632;51.962;16.116;2024-01-11T08:34:49;-6.35;88.93
68648;SHT31;55632;51.962;16.116;2024-01-11T08:39:50;-6.26;88.95
68648;SHT31;55632;51.962;16.116;2024-01-11T08:44:50;-6.20;89.07
68648;SHT31;55632;51.962;16.116;2024-01-11T08:49:52;-6.11;88.98
68648;SHT31;55632;51.962;16.116;2024-01-11T08:54:53;-6.06;89.09
68648;SHT31;55632;51.962;16.116;2024-01-11T08:59:53;-6.01;89.11
68648;SHT31;55632;51.962;16.116;2024-01-11T09:04:55;-5.90;89.08
68648;SHT31;55632;51.962;16.116;2024-01-11T09:09:55;-5.83;89.06
68648;SHT31;55632;51.962;16.116;2024-01-11T09:14:56;-5.75;88.98
68648;SHT31;55632;51.962;16.116;2024-01-11T09:19:57;-5.71;88.86
68648;SHT31;55632;51.962;16.116;2024-01-11T09:24:58;-5.66;88.89
68648;SHT31;55632;51.962;16.116;2024-01-11T09:29:58;-5.58;88.92
68648;SHT31;55632;51.962;16.116;2024-01-11T09:34:59;-5.51;88.90
68648;SHT31;55632;51.962;16.116;2024-01-11T09:40:00;-5.42;88.88
68648;SHT31;55632;51.962;16.116;2024-01-11T09:45:09;-5.34;88.77
68648;SHT31;55632;51.962;16.116;2024-01-11T09:50:11;-5.28;88.60
68648;SHT31;55632;51.962;16.116;2024-01-11T09:55:19;-5.26;88.64
68648;SHT31;55632;51.962;16.116;2024-01-11T10:00:22;-5.17;88.81
68648;SHT31;55632;51.962;16.116;2024-01-11T10:05:23;-5.10;88.72
68648;SHT31;55632;51.962;16.116;2024-01-11T10:10:24;-5.02;88.87
68648;SHT31;55632;51.962;16.116;2024-01-11T10:15:26;-4.93;88.70
68648;SHT31;55632;51.962;16.116;2024-01-11T10:20:27;-4.89;88.75
68648;SHT31;55632;51.962;16.116;2024-01-11T10:25:30;-4.83;88.69
68648;SHT31;55632;51.962;16.116;2024-01-11T10:30:31;-4.83;88.73
68648;SHT31;55632;51.962;16.116;2024-01-11T10:35:34;-4.81;88.75
68648;SHT31;55632;51.962;16.116;2024-01-11T10:40:36;-4.82;88.83
68648;SHT31;55632;51.962;16.116;2024-01-11T10:45:37;-4.74;88.86
68648;SHT31;55632;51.962;16.116;2024-01-11T10:50:43;-4.75;88.82
68648;SHT31;55632;51.962;16.116;2024-01-11T10:55:44;-4.69;88.86
68648;SHT31;55632;51.962;16.116;2024-01-11T11:00:47;-4.65;89.07
68648;SHT31;55632;51.962;16.116;2024-01-11T11:05:49;-4.58;88.96
68648;SHT31;55632;51.962;16.116;2024-01-11T11:10:58;-4.58;88.90
68648;SHT31;55632;51.962;16.116;2024-01-11T11:15:59;-4.53;88.84
68648;SHT31;55632;51.962;16.116;2024-01-11T11:21:00;-4.53;88.78
68648;SHT31;55632;51.962;16.116;2024-01-11T11:26:00;-4.50;88.99
68648;SHT31;55632;51.962;16.116;2024-01-11T11:31:02;-4.43;89.01
68648;SHT31;55632;51.962;16.116;2024-01-11T11:36:03;-4.43;89.02
68648;SHT31;55632;51.962;16.116;2024-01-11T11:41:04;-4.41;89.06
68648;SHT31;55632;51.962;16.116;2024-01-11T11:46:05;-4.37;89.33
68648;SHT31;55632;51.962;16.116;2024-01-11T11:56:10;-4.20;89.50
68648;SHT31;55632;51.962;16.116;2024-01-11T12:01:11;-4.16;89.40
68648;SHT31;55632;51.962;16.116;2024-01-11T12:06:13;-4.09;89.47
68648;SHT31;55632;51.962;16.116;2024-01-11T12:11:18;-4.07;89.53
68648;SHT31;55632;51.962;16.116;2024-01-11T12:16:19;-4.03;89.60
68648;SHT31;55632;51.962;16.116;2024-01-11T12:21:21;-4.01;89.74
68648;SHT31;55632;51.962;16.116;2024-01-11T12:26:22;-3.99;89.84
68648;SHT31;55632;51.962;16.116;2024-01-11T12:31:23;-3.99;89.99
68648;SHT31;55632;51.962;16.116;2024-01-11T12:36:23;-3.94;90.11
68648;SHT31;55632;51.962;16.116;2024-01-11T12:41:26;-3.89;90.27
68648;SHT31;55632;51.962;16.116;2024-01-11T12:46:27;-3.85;90.45
68648;SHT31;55632;51.962;16.116;2024-01-11T12:51:27;-3.82;90.51
68648;SHT31;55632;51.962;16.116;2024-01-11T12:56:28;-3.81;90.68
68648;SHT31;55632;51.962;16.116;2024-01-11T13:01:29;-3.79;90.92
68648;SHT31;55632;51.962;16.116;2024-01-11T13:06:30;-3.77;91.03
68648;SHT31;55632;51.962;16.116;2024-01-11T13:11:31;-3.77;91.19
68648;SHT31;55632;51.962;16.116;2024-01-11T13:16:33;-3.74;91.29
68648;SHT31;55632;51.962;16.116;2024-01-11T13:21:34;-3.70;91.37
68648;SHT31;55632;51.962;16.116;2024-01-11T13:26:35;-3.67;91.49
68648;SHT31;55632;51.962;16.116;2024-01-11T13:31:37;-3.61;91.66
68648;SHT31;55632;51.962;16.116;2024-01-11T13:36:38;-3.57;91.66
68648;SHT31;55632;51.962;16.116;2024-01-11T13:41:39;-3.51;91.92
68648;SHT31;55632;51.962;16.116;2024-01-11T13:46:41;-3.47;91.92
68648;SHT31;55632;51.962;16.116;2024-01-11T13:51:42;-3.40;91.97
68648;SHT31;55632;51.962;16.116;2024-01-11T13:56:44;-3.39;91.94
68648;SHT31;55632;51.962;16.116;2024-01-11T14:01:45;-3.35;92.03
68648;SHT31;55632;51.962;16.116;2024-01-11T14:06:46;-3.32;92.11
68648;SHT31;55632;51.962;16.116;2024-01-11T14:11:47;-3.31;92.22
68648;SHT31;55632;51.962;16.116;2024-01-11T14:16:49;-3.25;92.20
68648;SHT31;55632;51.962;16.116;2024-01-11T14:21:51;-3.22;92.32
68648;SHT31;55632;51.962;16.116;2024-01-11T14:26:52;-3.16;92.40
68648;SHT31;55632;51.962;16.116;2024-01-11T14:31:53;-3.15;92.38
68648;SHT31;55632;51.962;16.116;2024-01-11T14:36:54;-3.09;92.44
68648;SHT31;55632;51.962;16.116;2024-01-11T14:41:55;-3.06;92.51
68648;SHT31;55632;51.962;16.116;2024-01-11T14:46:56;-3.05;92.56
68648;SHT31;55632;51.962;16.116;2024-01-11T14:51:57;-3.01;92.68
68648;SHT31;55632;51.962;16.116;2024-01-11T14:56:58;-2.98;92.73
68648;SHT31;55632;51.962;16.116;2024-01-11T15:02:00;-2.95;92.74
68648;SHT31;55632;51.962;16.116;2024-01-11T15:07:01;-2.91;92.79
68648;SHT31;55632;51.962;16.116;2024-01-11T15:12:01;-2.85;92.88
68648;SHT31;55632;51.962;16.116;2024-01-11T15:17:02;-2.83;92.93
68648;SHT31;55632;51.962;16.116;2024-01-11T15:22:04;-2.80;92.92
68648;SHT31;55632;51.962;16.116;2024-01-11T15:27:05;-2.74;92.97
68648;SHT31;55632;51.962;16.116;2024-01-11T15:32:05;-2.71;93.00
68648;SHT31;55632;51.962;16.116;2024-01-11T15:37:09;-2.67;93.08
68648;SHT31;55632;51.962;16.116;2024-01-11T15:42:10;-2.63;93.09
68648;SHT31;55632;51.962;16.116;2024-01-11T15:47:11;-2.59;93.12
68648;SHT31;55632;51.962;16.116;2024-01-11T15:52:12;-2.56;93.12
68648;SHT31;55632;51.962;16.116;2024-01-11T15:57:12;-2.54;93.14
68648;SHT31;55632;51.962;16.116;2024-01-11T16:02:13;-2.50;93.15
68648;SHT31;55632;51.962;16.116;2024-01-11T16:07:15;-2.49;93.09
68648;SHT31;55632;51.962;16.116;2024-01-11T16:12:16;-2.46;93.09
68648;SHT31;55632;51.962;16.116;2024-01-11T16:17:17;-2.43;93.06
68648;SHT31;55632;51.962;16.116;2024-01-11T16:22:18;-2.41;93.05
68648;SHT31;55632;51.962;16.116;2024-01-11T16:27:21;-2.39;93.04
68648;SHT31;55632;51.962;16.116;2024-01-11T16:32:22;-2.36;93.05
68648;SHT31;55632;51.962;16.116;2024-01-11T16:37:23;-2.36;93.03
68648;SHT31;55632;51.962;16.116;2024-01-11T16:42:24;-2.35;93.01
68648;SHT31;55632;51.962;16.116;2024-01-11T16:47:26;-2.36;93.02
68648;SHT31;55632;51.962;16.116;2024-01-11T16:52:26;-2.32;93.02
68648;SHT31;55632;51.962;16.116;2024-01-11T16:57:27;-2.32;93.04
68648;SHT31;55632;51.962;16.116;2024-01-11T17:02:28;-2.29;93.09
68648;SHT31;55632;51.962;16.116;2024-01-11T17:07:28;-2.26;93.05
68648;SHT31;55632;51.962;16.116;2024-01-11T17:12:29;-2.26;93.08
68648;SHT31;55632;51.962;16.116;2024-01-11T17:17:30;-2.22;93.10
68648;SHT31;55632;51.962;16.116;2024-01-11T17:22:31;-2.21;93.09
68648;SHT31;55632;51.962;16.116;2024-01-11T17:27:32;-2.17;93.10
68648;SHT31;55632;51.962;16.116;2024-01-11T17:32:32;-2.17;93.13
68648;SHT31;55632;51.962;16.116;2024-01-11T17:37:33;-2.14;93.11
68648;SHT31;55632;51.962;16.116;2024-01-11T17:42:34;-2.11;93.10
68648;SHT31;55632;51.962;16.116;2024-01-11T17:47:35;-2.10;93.07
68648;SHT31;55632;51.962;16.116;2024-01-11T17:52:36;-2.11;93.07
68648;SHT31;55632;51.962;16.116;2024-01-11T17:57:37;-2.07;93.02
68648;SHT31;55632;51.962;16.116;2024-01-11T18:02:37;-2.05;93.01
68648;SHT31;55632;51.962;16.116;2024-01-11T18:07:38;-2.02;93.06
68648;SHT31;55632;51.962;16.116;2024-01-11T18:12:39;-2.04;93.08
68648;SHT31;55632;51.962;16.116;2024-01-11T18:17:40;-2.02;93.08
68648;SHT31;55632;51.962;16.116;2024-01-11T18:22:41;-2.04;93.07
68648;SHT31;55632;51.962;16.116;2024-01-11T18:27:41;-2.02;93.12
68648;SHT31;55632;51.962;16.116;2024-01-11T18:32:42;-2.01;93.14
68648;SHT31;55632;51.962;16.116;2024-01-11T18:37:43;-2.00;93.18
68648;SHT31;55632;51.962;16.116;2024-01-11T18:42:44;-2.01;93.20
68648;SHT31;55632;51.962;16.116;2024-01-11T18:47:45;-2.00;93.21
68648;SHT31;55632;51.962;16.116;2024-01-11T18:52:49;-1.94;93.29
68648;SHT31;55632;51.962;16.116;2024-01-11T18:57:50;-1.97;93.33
68648;SHT31;55632;51.962;16.116;2024-01-11T19:02:50;-1.95;93.39
68648;SHT31;55632;51.962;16.116;2024-01-11T19:07:52;-1.94;93.46
68648;SHT31;55632;51.962;16.116;2024-01-11T19:12:53;-1.93;93.46
68648;SHT31;55632;51.962;16.116;2024-01-11T19:17:55;-1.93;93.46
68648;SHT31;55632;51.962;16.116;2024-01-11T19:22:56;-1.91;93.56
68648;SHT31;55632;51.962;16.116;2024-01-11T19:28:01;-1.90;93.62
68648;SHT31;55632;51.962;16.116;2024-01-11T19:33:02;-1.86;93.61
68648;SHT31;55632;51.962;16.116;2024-01-11T19:38:03;-1.89;93.62
68648;SHT31;55632;51.962;16.116;2024-01-11T19:43:04;-1.84;93.65
68648;SHT31;55632;51.962;16.116;2024-01-11T19:48:05;-1.87;93.67
68648;SHT31;55632;51.962;16.116;2024-01-11T19:53:08;-1.83;93.70
68648;SHT31;55632;51.962;16.116;2024-01-11T19:58:09;-1.86;93.75
68648;SHT31;55632;51.962;16.116;2024-01-11T20:03:09;-1.82;93.76
68648;SHT31;55632;51.962;16.116;2024-01-11T20:08:10;-1.84;93.80
68648;SHT31;55632;51.962;16.116;2024-01-11T20:13:11;-1.80;93.79
68648;SHT31;55632;51.962;16.116;2024-01-11T20:18:12;-1.79;93.83
68648;SHT31;55632;51.962;16.116;2024-01-11T20:23:13;-1.80;93.83
68648;SHT31;55632;51.962;16.116;2024-01-11T20:28:14;-1.80;93.86
68648;SHT31;55632;51.962;16.116;2024-01-11T20:33:14;-1.80;93.82
68648;SHT31;55632;51.962;16.116;2024-01-11T20:38:15;-1.76;93.85
68648;SHT31;55632;51.962;16.116;2024-01-11T20:43:17;-1.77;93.90
68648;SHT31;55632;51.962;16.116;2024-01-11T20:48:18;-1.76;93.88
68648;SHT31;55632;51.962;16.116;2024-01-11T20:53:18;-1.76;93.85
68648;SHT31;55632;51.962;16.116;2024-01-11T20:58:19;-1.73;93.84
68648;SHT31;55632;51.962;16.116;2024-01-11T21:03:20;-1.73;93.82
68648;SHT31;55632;51.962;16.116;2024-01-11T21:08:21;-1.74;93.76
68648;SHT31;55632;51.962;16.116;2024-01-11T21:13:21;-1.73;93.75
68648;SHT31;55632;51.962;16.116;2024-01-11T21:18:24;-1.73;93.75
68648;SHT31;55632;51.962;16.116;2024-01-11T21:23:25;-1.73;93.72
68648;SHT31;55632;51.962;16.116;2024-01-11T21:28:26;-1.73;93.79
68648;SHT31;55632;51.962;16.116;2024-01-11T21:33:27;-1.69;93.78
68648;SHT31;55632;51.962;16.116;2024-01-11T21:38:27;-1.67;93.74
68648;SHT31;55632;51.962;16.116;2024-01-11T21:43:29;-1.67;93.75
68648;SHT31;55632;51.962;16.116;2024-01-11T21:48:32;-1.65;93.78
68648;SHT31;55632;51.962;16.116;2024-01-11T21:53:36;-1.65;93.80
68648;SHT31;55632;51.962;16.116;2024-01-11T21:58:49;-1.60;93.80
68648;SHT31;55632;51.962;16.116;2024-01-11T22:03:50;-1.56;93.78
68648;SHT31;55632;51.962;16.116;2024-01-11T22:08:51;-1.56;93.77
68648;SHT31;55632;51.962;16.116;2024-01-11T22:13:51;-1.56;93.82
68648;SHT31;55632;51.962;16.116;2024-01-11T22:18:52;-1.52;93.82
68648;SHT31;55632;51.962;16.116;2024-01-11T22:23:54;-1.51;93.82
68648;SHT31;55632;51.962;16.116;2024-01-11T22:28:55;-1.49;93.84
68648;SHT31;55632;51.962;16.116;2024-01-11T22:33:56;-1.49;93.88
68648;SHT31;55632;51.962;16.116;2024-01-11T22:38:57;-1.46;93.88
68648;SHT31;55632;51.962;16.116;2024-01-11T22:43:58;-1.46;93.86
68648;SHT31;55632;51.962;16.116;2024-01-11T22:49:00;-1.46;93.86
68648;SHT31;55632;51.962;16.116;2024-01-11T22:54:04;-1.42;93.86
68648;SHT31;55632;51.962;16.116;2024-01-11T22:59:05;-1.42;94.00
68648;SHT31;55632;51.962;16.116;2024-01-11T23:04:09;-1.39;94.02
68648;SHT31;55632;51.962;16.116;2024-01-11T23:09:10;-1.38;94.00
68648;SHT31;55632;51.962;16.116;2024-01-11T23:14:11;-1.39;94.00
68648;SHT31;55632;51.962;16.116;2024-01-11T23:19:18;-1.38;94.00
68648;SHT31;55632;51.962;16.116;2024-01-11T23:24:19;-1.35;93.99
68648;SHT31;55632;51.962;16.116;2024-01-11T23:29:20;-1.35;93.99
68648;SHT31;55632;51.962;16.116;2024-01-11T23:34:21;-1.32;94.03
68648;SHT31;55632;51.962;16.116;2024-01-11T23:39:21;-1.30;94.09
68648;SHT31;55632;51.962;16.116;2024-01-11T23:44:22;-1.31;94.09
68648;SHT31;55632;51.962;16.116;2024-01-11T23:49:23;-1.30;94.12
68648;SHT31;55632;51.962;16.116;2024-01-11T23:54:24;-1.25;94.12
68648;SHT31;55632;51.962;16.116;2024-01-11T23:59:24;-1.24;94.12
